createdAt,value
2023-05-12T00:00:44.456Z,3.20
2023-05-12T00:03:10.858Z,2.97
2023-05-12T00:05:37.261Z,3.47
2023-05-12T00:08:03.628Z,3.40
2023-05-12T00:10:29.957Z,3.42
2023-05-12T00:12:56.507Z,3.47
2023-05-12T00:15:22.799Z,3.20
2023-05-12T00:17:49.310Z,3.50
2023-05-12T00:20:15.663Z,4.15
2023-05-12T00:22:42.047Z,3.47
2023-05-12T00:25:08.769Z,3.40
2023-05-12T00:27:35.172Z,3.05
2023-05-12T00:30:01.543Z,3.28
2023-05-12T00:32:27.921Z,3.53
2023-05-12T00:34:54.538Z,3.63
2023-05-12T00:37:21.067Z,3.35
2023-05-12T00:39:47.377Z,3.22
2023-05-12T00:42:13.756Z,3.58
2023-05-12T00:44:40.176Z,3.60
2023-05-12T00:47:06.650Z,3.25
2023-05-12T00:49:33.027Z,3.60
2023-05-12T00:51:59.423Z,3.05
2023-05-12T00:54:26.681Z,3.45
2023-05-12T00:56:52.989Z,3.20
2023-05-12T00:59:19.318Z,3.22
2023-05-12T01:01:46.526Z,3.40
2023-05-12T01:04:13.124Z,3.50
2023-05-12T01:06:49.232Z,3.75
2023-05-12T01:09:15.966Z,3.17
2023-05-12T01:11:42.272Z,3.42
2023-05-12T01:14:08.617Z,3.30
2023-05-12T01:16:37.141Z,3.45
2023-05-12T01:19:05.610Z,3.20
2023-05-12T01:21:31.959Z,3.20
2023-05-12T01:23:59.028Z,3.25
2023-05-12T01:26:25.823Z,3.22
2023-05-12T01:28:52.311Z,3.22
2023-05-12T01:31:20.981Z,3.70
2023-05-12T01:33:47.562Z,3.10
2023-05-12T01:36:13.895Z,3.08
2023-05-12T01:38:40.242Z,2.78
2023-05-12T01:41:06.492Z,2.90
2023-05-12T01:43:32.752Z,2.90
2023-05-12T01:45:59.190Z,3.08
2023-05-12T01:48:25.569Z,2.90
2023-05-12T01:50:51.808Z,3.60
2023-05-12T01:53:18.108Z,2.60
2023-05-12T01:55:44.367Z,3.25
2023-05-12T01:58:10.646Z,2.65
2023-05-12T02:00:36.955Z,2.67
2023-05-12T02:03:03.396Z,2.83
2023-05-12T02:05:29.774Z,3.35
2023-05-12T02:07:56.076Z,2.97
2023-05-12T02:10:22.660Z,2.70
2023-05-12T02:12:49.166Z,2.63
2023-05-12T02:15:15.428Z,2.75
2023-05-12T02:17:41.709Z,3.03
2023-05-12T02:20:08.942Z,2.72
2023-05-12T02:22:35.257Z,2.65
2023-05-12T02:25:01.676Z,3.08
2023-05-12T02:27:28.030Z,2.55
2023-05-12T02:29:54.292Z,2.65
2023-05-12T02:32:21.656Z,2.70
2023-05-12T02:34:48.025Z,2.58
2023-05-12T02:37:14.333Z,2.60
2023-05-12T02:39:40.641Z,2.70
2023-05-12T02:42:07.083Z,2.65
2023-05-12T02:44:33.315Z,2.53
2023-05-12T02:46:59.777Z,2.10
2023-05-12T02:49:26.064Z,2.42
2023-05-12T02:51:52.363Z,2.50
2023-05-12T02:54:18.724Z,2.13
2023-05-12T02:56:45.066Z,2.45
2023-05-12T02:59:12.069Z,2.28
2023-05-12T03:01:38.411Z,2.30
2023-05-12T03:04:04.698Z,2.40
2023-05-12T03:06:31.041Z,2.17
2023-05-12T03:08:57.390Z,2.00
2023-05-12T03:11:23.704Z,2.10
2023-05-12T03:13:50.036Z,2.20
2023-05-12T03:16:19.447Z,1.58
2023-05-12T03:18:46.216Z,2.17
2023-05-12T03:21:13.108Z,2.00
2023-05-12T03:23:39.472Z,1.98
2023-05-12T03:26:05.818Z,2.13
2023-05-12T03:28:32.396Z,2.10
2023-05-12T03:30:58.794Z,1.90
2023-05-12T03:33:25.145Z,1.70
2023-05-12T03:35:51.975Z,1.63
2023-05-12T03:38:18.349Z,2.03
2023-05-12T03:40:44.584Z,1.60
2023-05-12T03:43:10.866Z,1.63
2023-05-12T03:45:37.165Z,1.67
2023-05-12T03:48:03.600Z,1.45
2023-05-12T03:50:29.948Z,1.60
2023-05-12T03:52:56.818Z,1.60
2023-05-12T03:55:23.138Z,1.83
2023-05-12T03:57:50.205Z,1.60
2023-05-12T04:00:17.145Z,1.40
2023-05-12T04:02:43.683Z,1.73
2023-05-12T04:05:10.203Z,1.35
2023-05-12T04:07:36.947Z,1.73
2023-05-12T04:10:03.461Z,1.55
2023-05-12T04:12:29.880Z,1.55
2023-05-12T04:14:57.231Z,1.40
2023-05-12T04:17:23.562Z,1.52
2023-05-12T04:19:49.954Z,1.60
2023-05-12T04:22:16.300Z,1.30
2023-05-12T04:24:42.585Z,1.30
2023-05-12T04:27:08.923Z,1.50
2023-05-12T04:29:35.555Z,1.48
2023-05-12T04:32:01.914Z,1.20
2023-05-12T04:34:28.239Z,1.20
2023-05-12T04:36:54.499Z,1.50
2023-05-12T04:39:20.757Z,1.33
2023-05-12T04:41:47.077Z,1.23
2023-05-12T04:44:13.373Z,1.25
2023-05-12T04:46:39.698Z,1.30
2023-05-12T04:49:06.033Z,1.48
2023-05-12T04:51:32.676Z,1.10
2023-05-12T04:53:58.944Z,1.38
2023-05-12T04:56:25.447Z,1.20
2023-05-12T04:58:51.776Z,1.55
2023-05-12T05:01:18.134Z,1.50
2023-05-12T05:03:44.516Z,1.42
2023-05-12T05:06:10.851Z,1.50
2023-05-12T05:08:37.144Z,1.30
2023-05-12T05:11:03.416Z,1.23
2023-05-12T05:13:29.732Z,1.20
2023-05-12T05:15:56.382Z,1.85
2023-05-12T05:18:24.263Z,1.35
2023-05-12T05:20:57.874Z,1.90
2023-05-12T05:23:32.259Z,1.63
2023-05-12T05:25:58.659Z,1.77
2023-05-12T05:28:26.558Z,1.63
2023-05-12T05:30:52.870Z,1.73
2023-05-12T05:33:19.108Z,2.45
2023-05-12T05:35:46.602Z,2.33
2023-05-12T05:38:13.110Z,2.63
2023-05-12T05:40:52.061Z,2.92
2023-05-12T05:43:19.797Z,2.20
2023-05-12T05:45:46.191Z,2.80
2023-05-12T05:48:12.657Z,2.97
2023-05-12T05:50:38.995Z,2.90
2023-05-12T05:53:08.681Z,3.10
2023-05-12T05:55:34.958Z,3.05
2023-05-12T05:58:01.292Z,3.30
2023-05-12T06:00:27.716Z,3.17
2023-05-12T06:02:54.219Z,3.42
2023-05-12T06:05:21.256Z,3.58
2023-05-12T06:07:47.954Z,3.25
2023-05-12T06:10:17.364Z,3.30
2023-05-12T06:12:44.095Z,3.60
2023-05-12T06:15:11.133Z,3.72
2023-05-12T06:17:37.698Z,3.22
2023-05-12T06:20:05.375Z,3.88
2023-05-12T06:22:31.758Z,4.07
2023-05-12T06:24:58.031Z,4.03
2023-05-12T06:27:24.457Z,4.25
2023-05-12T06:29:51.408Z,4.53
2023-05-12T06:32:18.118Z,3.88
2023-05-12T06:34:44.618Z,4.63
2023-05-12T06:37:11.535Z,5.00
2023-05-12T06:39:37.805Z,4.78
2023-05-12T06:42:04.535Z,4.95
2023-05-12T06:44:31.095Z,6.00
2023-05-12T06:46:57.364Z,5.82
2023-05-12T06:49:24.321Z,5.22
2023-05-12T06:51:50.638Z,5.13
2023-05-12T06:54:16.976Z,5.28
2023-05-12T06:56:43.462Z,5.32
2023-05-12T06:59:09.998Z,5.10
2023-05-12T07:01:36.601Z,4.75
2023-05-12T07:04:03.054Z,4.93
2023-05-12T07:06:29.599Z,4.60
2023-05-12T07:08:56.431Z,4.07
2023-05-12T07:11:23.075Z,4.30
2023-05-12T07:13:50.109Z,4.05
2023-05-12T07:16:17.193Z,3.90
2023-05-12T07:18:43.768Z,3.75
2023-05-12T07:21:10.293Z,3.65
2023-05-12T07:23:37.169Z,3.40
2023-05-12T07:26:04.623Z,2.83
2023-05-12T07:28:36.928Z,3.28
2023-05-12T07:31:09.896Z,3.17
2023-05-12T07:33:36.804Z,3.33
2023-05-12T07:36:04.778Z,2.90
2023-05-12T07:38:31.969Z,2.72
2023-05-12T07:40:58.898Z,2.67
2023-05-12T07:43:25.258Z,3.00
2023-05-12T07:45:51.710Z,2.42
2023-05-12T07:48:18.544Z,2.33
2023-05-12T07:50:45.277Z,2.55
2023-05-12T07:53:11.618Z,2.97
2023-05-12T07:55:38.033Z,2.80
2023-05-12T07:58:04.472Z,2.30
2023-05-12T08:00:30.893Z,3.38
2023-05-12T08:02:57.314Z,2.78
2023-05-12T08:05:23.642Z,2.30
2023-05-12T08:07:50.040Z,2.50
2023-05-12T08:10:16.315Z,2.67
2023-05-12T08:12:42.726Z,2.47
2023-05-12T08:15:09.451Z,2.40
2023-05-12T08:17:36.019Z,2.47
2023-05-12T08:20:04.364Z,2.58
2023-05-12T08:22:31.001Z,2.53
2023-05-12T08:24:57.286Z,2.42
2023-05-12T08:27:23.663Z,2.40
2023-05-12T08:29:50.025Z,2.47
2023-05-12T08:32:16.727Z,2.33
2023-05-12T08:34:43.094Z,2.10
2023-05-12T08:37:09.446Z,1.85
2023-05-12T08:39:36.754Z,2.45
2023-05-12T08:42:09.420Z,2.35
2023-05-12T08:44:37.110Z,2.33
2023-05-12T08:47:04.196Z,2.17
2023-05-12T08:49:31.512Z,2.35
2023-05-12T08:51:59.392Z,2.25
2023-05-12T08:54:27.275Z,2.10
2023-05-12T08:59:23.600Z,2.40
2023-05-12T09:01:50.856Z,2.45
2023-05-12T09:04:17.582Z,2.25
2023-05-12T09:06:44.728Z,2.17
2023-05-12T09:09:12.890Z,2.20
2023-05-12T09:11:39.193Z,2.30
2023-05-12T09:14:09.455Z,2.20
2023-05-12T09:16:39.560Z,2.60
2023-05-12T09:19:07.227Z,2.55
2023-05-12T09:21:34.260Z,2.70
2023-05-12T09:24:06.518Z,2.70
2023-05-12T09:26:46.330Z,2.38
2023-05-12T09:29:20.799Z,2.47
2023-05-12T09:31:55.348Z,2.80
2023-05-12T09:34:30.935Z,2.33
2023-05-12T09:39:24.501Z,2.40
2023-05-12T09:41:52.360Z,2.20
2023-05-12T09:44:18.768Z,2.35
2023-05-12T09:46:45.412Z,2.63
2023-05-12T09:49:12.023Z,2.28
2023-05-12T09:51:39.809Z,2.13
2023-05-12T09:54:07.593Z,2.40
2023-05-12T09:56:37.551Z,2.65
2023-05-12T09:59:04.726Z,2.40
2023-05-12T10:01:31.353Z,2.50
2023-05-12T10:03:58.519Z,2.42
2023-05-12T10:06:31.828Z,2.17
2023-05-12T10:09:01.222Z,2.30
2023-05-12T10:11:28.131Z,2.20
2023-05-12T10:13:54.562Z,2.20
2023-05-12T10:16:21.686Z,2.03
2023-05-12T10:18:48.463Z,2.08
2023-05-12T10:21:14.935Z,2.30
2023-05-12T10:23:41.619Z,2.38
2023-05-12T10:26:09.461Z,1.95
2023-05-12T10:28:35.730Z,2.17
2023-05-12T10:31:03.384Z,1.83
2023-05-12T10:33:29.869Z,2.15
2023-05-12T10:35:56.424Z,1.85
2023-05-12T10:38:22.766Z,1.90
2023-05-12T10:41:09.374Z,1.92
2023-05-12T10:43:38.681Z,1.90
2023-05-12T10:46:21.196Z,1.65
2023-05-12T10:49:20.132Z,1.88
2023-05-12T10:51:48.429Z,1.80
2023-05-12T10:54:24.623Z,1.80
2023-05-12T10:56:51.510Z,1.60
2023-05-12T10:59:19.690Z,1.70
2023-05-12T11:06:57.730Z,1.75
2023-05-12T11:09:24.881Z,1.58
2023-05-12T11:11:52.291Z,1.75
2023-05-12T11:14:19.053Z,1.60
2023-05-12T11:16:45.448Z,1.67
2023-05-12T11:19:12.636Z,1.70
2023-05-12T11:21:39.828Z,1.50
2023-05-12T11:24:06.349Z,1.48
2023-05-12T11:26:33.783Z,1.60
2023-05-12T11:29:00.147Z,1.60
2023-05-12T11:31:26.816Z,1.40
2023-05-12T11:34:12.062Z,1.60
2023-05-12T11:36:40.678Z,1.30
2023-05-12T11:39:07.179Z,1.40
2023-05-12T11:41:33.482Z,1.50
2023-05-12T11:43:59.834Z,1.20
2023-05-12T11:46:27.012Z,1.73
2023-05-12T11:48:56.735Z,1.58
2023-05-12T11:51:23.544Z,1.65
2023-05-12T11:53:50.285Z,1.50
2023-05-12T11:56:23.859Z,1.33
2023-05-12T11:58:56.947Z,1.30
2023-05-12T12:01:23.693Z,1.60
2023-05-12T12:03:51.193Z,1.48
2023-05-12T12:06:18.241Z,1.50
2023-05-12T12:08:50.575Z,1.20
2023-05-12T12:11:21.845Z,1.65
2023-05-12T12:13:52.235Z,1.52
2023-05-12T12:16:18.623Z,1.55
2023-05-12T12:18:44.966Z,1.30
2023-05-12T12:21:11.923Z,1.63
2023-05-12T12:23:50.229Z,1.48
2023-05-12T12:26:20.465Z,1.38
2023-05-12T12:28:47.586Z,1.30
2023-05-12T12:31:14.293Z,1.52
2023-05-12T12:33:40.698Z,1.20
2023-05-12T12:36:07.146Z,1.55
2023-05-12T12:38:33.470Z,1.25
2023-05-12T12:41:00.274Z,1.50
2023-05-12T12:43:27.227Z,1.80
2023-05-12T12:45:54.586Z,1.50
2023-05-12T12:48:21.318Z,1.50
2023-05-12T12:50:47.673Z,1.50
2023-05-12T12:53:14.075Z,1.58
2023-05-12T12:55:40.460Z,1.88
2023-05-12T12:58:06.757Z,1.58
2023-05-12T13:00:33.200Z,1.40
2023-05-12T13:03:00.161Z,1.42
2023-05-12T13:05:26.733Z,2.05
2023-05-12T13:07:53.564Z,1.52
2023-05-12T13:10:20.058Z,1.70
2023-05-12T13:12:46.433Z,2.50
2023-05-12T13:15:12.858Z,2.00
2023-05-12T13:17:39.731Z,1.73
2023-05-12T13:20:06.412Z,1.92
2023-05-12T13:22:33.219Z,1.90
2023-05-12T13:24:59.492Z,1.98
2023-05-12T13:27:25.823Z,1.92
2023-05-12T13:29:52.741Z,2.10
2023-05-12T13:32:20.654Z,1.80
2023-05-12T13:34:47.212Z,2.17
2023-05-12T13:37:13.514Z,2.20
2023-05-12T13:39:39.767Z,1.90
2023-05-12T13:42:06.302Z,2.30
2023-05-12T13:44:32.660Z,2.10
2023-05-12T13:46:59.048Z,2.17
2023-05-12T13:49:25.616Z,2.00
2023-05-12T13:51:52.117Z,2.20
2023-05-12T13:54:18.482Z,2.30
2023-05-12T13:56:44.790Z,1.85
2023-05-12T13:59:11.041Z,2.20
2023-05-12T14:01:37.460Z,2.03
2023-05-12T14:04:03.905Z,1.90
2023-05-12T14:06:30.191Z,1.92
2023-05-12T14:08:56.891Z,2.08
2023-05-12T14:11:24.316Z,1.83
2023-05-12T14:13:50.617Z,2.03
2023-05-12T14:16:17.116Z,2.08
2023-05-12T14:18:46.387Z,2.13
2023-05-12T14:21:12.864Z,2.00
2023-05-12T14:23:41.825Z,2.13
2023-05-12T14:26:08.233Z,2.05
2023-05-12T14:28:34.674Z,1.90
2023-05-12T14:31:02.669Z,1.80
2023-05-12T14:33:29.025Z,2.13
2023-05-12T14:36:05.748Z,1.95
2023-05-12T14:38:34.086Z,2.00
2023-05-12T14:41:00.417Z,2.20
2023-05-12T14:43:29.211Z,2.15
2023-05-12T14:45:55.658Z,1.90
2023-05-12T14:48:26.529Z,2.17
2023-05-12T14:50:53.574Z,1.80
2023-05-12T14:53:20.456Z,1.60
2023-05-12T14:55:47.133Z,2.00
2023-05-12T14:58:14.394Z,2.05
2023-05-12T15:00:40.764Z,1.90
2023-05-12T15:03:07.753Z,2.00
2023-05-12T15:05:51.377Z,2.10
2023-05-12T15:10:47.958Z,2.15
2023-05-12T15:13:15.942Z,2.13
2023-05-12T15:15:42.284Z,2.28
2023-05-12T15:18:08.943Z,2.42
2023-05-12T15:20:35.230Z,2.20
2023-05-12T15:23:01.607Z,2.50
2023-05-12T15:25:28.162Z,2.10
2023-05-12T15:27:54.499Z,2.15
2023-05-12T15:30:20.877Z,1.83
2023-05-12T15:32:47.399Z,2.17
2023-05-12T15:35:13.775Z,2.00
2023-05-12T15:37:40.187Z,1.90
2023-05-12T15:40:06.893Z,2.00
2023-05-12T15:42:33.608Z,1.90
2023-05-12T15:44:59.981Z,2.20
2023-05-12T15:47:27.543Z,2.17
2023-05-12T15:49:54.398Z,2.30
2023-05-12T15:52:20.817Z,2.10
2023-05-12T15:54:47.358Z,2.10
2023-05-12T15:57:13.739Z,2.38
2023-05-12T15:59:40.059Z,2.17
2023-05-12T16:02:07.489Z,2.20
2023-05-12T16:04:33.883Z,2.47
2023-05-12T16:07:00.221Z,2.35
2023-05-12T16:09:26.505Z,1.92
2023-05-12T16:11:53.801Z,2.70
2023-05-12T16:14:21.886Z,2.20
2023-05-12T16:16:49.036Z,2.30
2023-05-12T16:19:15.665Z,2.72
2023-05-12T16:21:42.767Z,2.45
2023-05-12T16:24:09.779Z,2.80
2023-05-12T16:26:36.761Z,2.70
2023-05-12T16:29:03.500Z,2.75
2023-05-12T16:31:31.365Z,2.90
2023-05-12T16:33:57.855Z,2.88
2023-05-12T16:36:24.648Z,2.80
2023-05-12T16:38:51.356Z,2.58
2023-05-12T16:41:18.489Z,2.67
2023-05-12T16:43:44.997Z,2.67
2023-05-12T16:46:11.651Z,3.10
2023-05-12T16:48:38.307Z,3.00
2023-05-12T16:51:05.556Z,2.58
2023-05-12T16:53:32.295Z,2.78
2023-05-12T16:55:59.137Z,2.95
2023-05-12T16:58:27.517Z,3.35
2023-05-12T17:00:53.982Z,2.58
2023-05-12T17:03:20.322Z,2.70
2023-05-12T17:05:46.979Z,2.83
2023-05-12T17:08:13.687Z,2.70
2023-05-12T17:10:40.022Z,3.05
2023-05-12T17:13:06.668Z,2.67
2023-05-12T17:15:32.978Z,3.10
2023-05-12T17:17:59.498Z,2.60
2023-05-12T17:20:25.886Z,3.10
2023-05-12T17:22:52.248Z,3.03
2023-05-12T17:25:19.308Z,2.80
2023-05-12T17:27:47.026Z,3.15
2023-05-12T17:30:13.842Z,3.13
2023-05-12T17:32:40.396Z,3.13
2023-05-12T17:35:08.058Z,2.85
2023-05-12T17:37:34.920Z,3.55
2023-05-12T17:40:01.333Z,3.13
2023-05-12T17:42:31.044Z,3.20
2023-05-12T17:45:00.769Z,3.22
2023-05-12T17:47:27.409Z,3.63
2023-05-12T17:49:53.795Z,3.40
2023-05-12T17:52:20.679Z,3.25
2023-05-12T17:54:47.149Z,3.95
2023-05-12T17:57:13.488Z,3.60
2023-05-12T17:59:39.881Z,3.47
2023-05-12T18:02:06.615Z,3.38
2023-05-12T18:04:34.713Z,3.85
2023-05-12T18:07:01.058Z,3.60
2023-05-12T18:09:28.654Z,3.60
2023-05-12T18:11:55.041Z,3.92
2023-05-12T18:14:21.856Z,3.10
2023-05-12T18:16:48.729Z,3.50
2023-05-12T18:19:15.347Z,3.33
2023-05-12T18:21:41.915Z,3.67
2023-05-12T18:24:08.312Z,3.22
2023-05-12T18:26:34.728Z,4.00
2023-05-12T18:29:01.234Z,3.22
2023-05-12T18:31:27.898Z,3.20
2023-05-12T18:33:54.499Z,3.22
2023-05-12T18:36:21.152Z,3.63
2023-05-12T18:38:47.526Z,3.70
2023-05-12T18:41:13.950Z,2.90
2023-05-12T18:43:41.580Z,3.80
2023-05-12T18:46:08.099Z,2.88
2023-05-12T18:48:34.739Z,2.92
2023-05-12T18:51:01.574Z,3.03
2023-05-12T18:53:27.882Z,3.28
2023-05-12T18:55:54.425Z,2.95
2023-05-12T18:58:20.820Z,3.42
2023-05-12T19:00:48.942Z,3.33
2023-05-12T19:03:16.538Z,3.10
2023-05-12T19:05:44.731Z,3.15
2023-05-12T19:08:11.365Z,2.75
2023-05-12T19:10:39.736Z,3.05
2023-05-12T19:13:06.708Z,3.03
2023-05-12T19:15:33.069Z,3.33
2023-05-12T19:17:59.472Z,2.90
2023-05-12T19:20:25.864Z,3.08
2023-05-12T19:22:52.328Z,2.70
2023-05-12T19:25:18.827Z,3.30
2023-05-12T19:27:45.710Z,2.83
2023-05-12T19:30:13.072Z,3.55
2023-05-12T19:32:40.137Z,2.88
2023-05-12T19:35:06.948Z,3.17
2023-05-12T19:37:33.694Z,2.88
2023-05-12T19:40:00.104Z,2.95
2023-05-12T19:42:27.632Z,3.05
2023-05-12T19:44:54.148Z,3.15
2023-05-12T19:47:24.984Z,3.33
2023-05-12T19:49:53.826Z,3.40
2023-05-12T19:52:20.641Z,2.80
2023-05-12T19:54:46.952Z,3.22
2023-05-12T19:57:13.433Z,3.25
2023-05-12T19:59:39.823Z,3.05
2023-05-12T20:02:06.208Z,2.70
2023-05-12T20:04:32.591Z,3.20
2023-05-12T20:06:59.307Z,3.15
2023-05-12T20:09:25.993Z,3.20
2023-05-12T20:11:52.760Z,3.15
2023-05-12T20:14:19.057Z,3.20
2023-05-12T20:16:45.532Z,3.15
2023-05-12T20:19:11.973Z,3.25
2023-05-12T20:21:38.634Z,2.78
2023-05-12T20:24:05.502Z,3.10
2023-05-12T20:26:32.027Z,3.50
2023-05-12T20:28:59.575Z,3.47
2023-05-12T20:31:26.396Z,3.35
2023-05-12T20:33:53.091Z,3.20
2023-05-12T20:36:19.967Z,3.22
2023-05-12T20:38:46.284Z,3.10
2023-05-12T20:41:13.707Z,2.80
2023-05-12T20:43:41.386Z,3.42
2023-05-12T20:46:07.763Z,3.10
2023-05-12T20:48:34.203Z,3.10
2023-05-12T20:51:09.482Z,3.40
2023-05-12T20:53:36.525Z,3.00
2023-05-12T20:56:02.796Z,3.22
2023-05-12T20:58:29.073Z,3.90
2023-05-12T21:00:55.356Z,3.05
2023-05-12T21:03:22.798Z,2.88
2023-05-12T21:05:49.291Z,3.40
2023-05-12T21:08:15.766Z,3.30
2023-05-12T21:10:42.125Z,3.10
2023-05-12T21:13:08.473Z,3.30
2023-05-12T21:15:35.027Z,3.40
2023-05-12T21:18:01.408Z,3.00
2023-05-12T21:20:27.818Z,3.03
2023-05-12T21:22:54.773Z,3.20
2023-05-12T21:25:21.643Z,3.53
2023-05-12T21:27:47.980Z,3.45
2023-05-12T21:30:14.398Z,3.20
2023-05-12T21:32:40.882Z,3.38
2023-05-12T21:35:07.627Z,3.00
2023-05-12T21:37:34.405Z,3.17
2023-05-12T21:40:00.796Z,3.70
2023-05-12T21:42:27.108Z,3.47
2023-05-12T21:44:53.493Z,3.10
2023-05-12T21:47:19.788Z,3.42
2023-05-12T21:49:46.176Z,2.97
2023-05-12T21:52:13.125Z,3.30
2023-05-12T21:54:39.449Z,3.30
2023-05-12T21:57:05.892Z,3.75
2023-05-12T21:59:32.265Z,3.28
2023-05-12T22:01:58.862Z,3.33
2023-05-12T22:04:25.266Z,3.17
2023-05-12T22:06:51.866Z,3.45
2023-05-12T22:09:18.497Z,3.10
2023-05-12T22:11:45.264Z,3.60
2023-05-12T22:14:11.593Z,3.75
2023-05-12T22:16:42.030Z,3.30
2023-05-12T22:19:09.154Z,3.20
2023-05-12T22:21:35.611Z,3.72
2023-05-12T22:24:01.966Z,3.40
2023-05-12T22:26:28.358Z,3.20
2023-05-12T22:28:54.731Z,3.33
2023-05-12T22:31:21.272Z,3.33
2023-05-12T22:33:47.676Z,3.38
2023-05-12T22:36:14.032Z,3.08
2023-05-12T22:38:40.432Z,3.40
2023-05-12T22:41:06.765Z,3.38
2023-05-12T22:43:33.066Z,3.30
2023-05-12T22:45:59.429Z,3.47
2023-05-12T22:48:25.815Z,3.10
2023-05-12T22:50:55.222Z,3.25
2023-05-12T22:53:21.624Z,3.33
2023-05-12T22:55:48.066Z,3.60
2023-05-12T22:58:14.475Z,3.25
2023-05-12T23:00:40.797Z,3.10
2023-05-12T23:03:07.327Z,3.20
2023-05-12T23:05:33.768Z,3.20
2023-05-12T23:08:00.073Z,3.42
2023-05-12T23:10:26.555Z,3.47
2023-05-12T23:12:52.844Z,3.35
2023-05-12T23:15:19.192Z,3.63
2023-05-12T23:17:45.629Z,3.63
2023-05-12T23:20:12.541Z,3.22
2023-05-12T23:22:41.815Z,3.75
2023-05-12T23:25:08.555Z,3.47
2023-05-12T23:27:35.855Z,3.58
2023-05-12T23:30:02.241Z,3.50
2023-05-12T23:32:28.716Z,3.55
2023-05-12T23:34:55.196Z,3.10
2023-05-12T23:37:21.688Z,3.30
2023-05-12T23:39:48.028Z,3.55
2023-05-12T23:42:14.509Z,3.70
2023-05-12T23:44:40.987Z,3.38
2023-05-12T23:47:07.377Z,3.28
2023-05-12T23:49:33.770Z,3.95
2023-05-12T23:52:00.127Z,3.47
2023-05-12T23:54:26.459Z,3.60
2023-05-12T23:56:52.861Z,3.92
2023-05-12T23:59:19.260Z,3.65
